sensor_id;sensor_type;location;lat;lon;timestamp;P1;durP1;ratioP1;P2;durP2;ratioP2
9884;SDS011;4981;50.966;4.842;2023-02-28T00:01:20;5.80;;;3.77;;
9884;SDS011;4981;50.966;4.842;2023-02-28T00:03:47;7.90;;;4.03;;
9884;SDS011;4981;50.966;4.842;2023-02-28T00:06:15;7.33;;;3.53;;
9884;SDS011;4981;50.966;4.842;2023-02-28T00:08:44;7.20;;;3.67;;
9884;SDS011;4981;50.966;4.842;2023-02-28T00:11:13;6.40;;;3.37;;
9884;SDS011;4981;50.966;4.842;2023-02-28T00:13:41;6.10;;;3.30;;
9884;SDS011;4981;50.966;4.842;2023-02-28T00:16:12;7.10;;;4.07;;
9884;SDS011;4981;50.966;4.842;2023-02-28T00:18:40;6.73;;;3.77;;
9884;SDS011;4981;50.966;4.842;2023-02-28T00:21:08;5.70;;;3.80;;
9884;SDS011;4981;50.966;4.842;2023-02-28T00:23:36;6.93;;;3.87;;
9884;SDS011;4981;50.966;4.842;2023-02-28T00:26:05;6.63;;;3.90;;
9884;SDS011;4981;50.966;4.842;2023-02-28T00:28:33;6.20;;;3.50;;
9884;SDS011;4981;50.966;4.842;2023-02-28T00:31:00;4.73;;;3.50;;
9884;SDS011;4981;50.966;4.842;2023-02-28T00:33:28;5.57;;;3.47;;
9884;SDS011;4981;50.966;4.842;2023-02-28T00:36:03;5.50;;;3.50;;
9884;SDS011;4981;50.966;4.842;2023-02-28T00:38:31;7.87;;;4.40;;
9884;SDS011;4981;50.966;4.842;2023-02-28T00:40:58;7.40;;;4.07;;
9884;SDS011;4981;50.966;4.842;2023-02-28T00:43:31;6.77;;;3.90;;
9884;SDS011;4981;50.966;4.842;2023-02-28T00:45:59;5.73;;;3.87;;
9884;SDS011;4981;50.966;4.842;2023-02-28T00:48:27;7.83;;;3.80;;
9884;SDS011;4981;50.966;4.842;2023-02-28T00:50:55;6.13;;;3.80;;
9884;SDS011;4981;50.966;4.842;2023-02-28T00:53:22;6.40;;;3.50;;
9884;SDS011;4981;50.966;4.842;2023-02-28T00:55:50;7.07;;;3.67;;
9884;SDS011;4981;50.966;4.842;2023-02-28T00:58:18;7.90;;;3.93;;
9884;SDS011;4981;50.966;4.842;2023-02-28T01:00:47;6.03;;;4.20;;
9884;SDS011;4981;50.966;4.842;2023-02-28T01:03:15;7.03;;;4.10;;
9884;SDS011;4981;50.966;4.842;2023-02-28T01:05:43;7.83;;;4.10;;
9884;SDS011;4981;50.966;4.842;2023-02-28T01:08:11;8.87;;;4.30;;
9884;SDS011;4981;50.966;4.842;2023-02-28T01:10:38;7.30;;;3.90;;
9884;SDS011;4981;50.966;4.842;2023-02-28T01:13:06;6.93;;;4.20;;
9884;SDS011;4981;50.966;4.842;2023-02-28T01:15:33;5.70;;;3.90;;
9884;SDS011;4981;50.966;4.842;2023-02-28T01:18:03;8.03;;;4.27;;
9884;SDS011;4981;50.966;4.842;2023-02-28T01:20:30;6.63;;;4.50;;
9884;SDS011;4981;50.966;4.842;2023-02-28T01:22:58;6.60;;;4.10;;
9884;SDS011;4981;50.966;4.842;2023-02-28T01:25:26;5.83;;;3.80;;
9884;SDS011;4981;50.966;4.842;2023-02-28T01:27:53;8.10;;;4.20;;
9884;SDS011;4981;50.966;4.842;2023-02-28T01:30:21;10.43;;;4.10;;
9884;SDS011;4981;50.966;4.842;2023-02-28T01:32:49;5.80;;;3.97;;
9884;SDS011;4981;50.966;4.842;2023-02-28T01:35:20;6.33;;;4.37;;
9884;SDS011;4981;50.966;4.842;2023-02-28T01:37:47;7.97;;;4.30;;
9884;SDS011;4981;50.966;4.842;2023-02-28T01:40:15;6.30;;;3.67;;
9884;SDS011;4981;50.966;4.842;2023-02-28T01:42:43;5.73;;;3.80;;
9884;SDS011;4981;50.966;4.842;2023-02-28T01:45:18;5.10;;;4.07;;
9884;SDS011;4981;50.966;4.842;2023-02-28T01:47:46;8.17;;;4.07;;
9884;SDS011;4981;50.966;4.842;2023-02-28T01:50:17;6.47;;;3.97;;
9884;SDS011;4981;50.966;4.842;2023-02-28T01:52:47;6.00;;;4.33;;
9884;SDS011;4981;50.966;4.842;2023-02-28T01:55:15;7.47;;;4.13;;
9884;SDS011;4981;50.966;4.842;2023-02-28T01:57:45;8.03;;;4.30;;
9884;SDS011;4981;50.966;4.842;2023-02-28T02:00:15;6.27;;;4.20;;
9884;SDS011;4981;50.966;4.842;2023-02-28T02:02:45;6.53;;;4.03;;
9884;SDS011;4981;50.966;4.842;2023-02-28T02:05:14;8.97;;;4.47;;
9884;SDS011;4981;50.966;4.842;2023-02-28T02:07:43;6.67;;;4.80;;
9884;SDS011;4981;50.966;4.842;2023-02-28T02:10:14;9.93;;;4.53;;
9884;SDS011;4981;50.966;4.842;2023-02-28T02:12:55;7.90;;;4.93;;
9884;SDS011;4981;50.966;4.842;2023-02-28T02:15:26;7.80;;;4.63;;
9884;SDS011;4981;50.966;4.842;2023-02-28T02:17:57;6.63;;;4.47;;
9884;SDS011;4981;50.966;4.842;2023-02-28T02:23:17;8.97;;;5.57;;
9884;SDS011;4981;50.966;4.842;2023-02-28T02:25:54;7.93;;;5.07;;
9884;SDS011;4981;50.966;4.842;2023-02-28T02:34:20;12.00;;;5.43;;
9884;SDS011;4981;50.966;4.842;2023-02-28T02:36:51;8.83;;;5.57;;
9884;SDS011;4981;50.966;4.842;2023-02-28T02:39:22;8.00;;;5.07;;
9884;SDS011;4981;50.966;4.842;2023-02-28T02:41:56;9.00;;;4.93;;
9884;SDS011;4981;50.966;4.842;2023-02-28T02:44:24;8.93;;;5.73;;
9884;SDS011;4981;50.966;4.842;2023-02-28T02:46:53;10.50;;;5.23;;
9884;SDS011;4981;50.966;4.842;2023-02-28T02:49:24;9.80;;;5.33;;
9884;SDS011;4981;50.966;4.842;2023-02-28T02:51:53;9.13;;;5.73;;
9884;SDS011;4981;50.966;4.842;2023-02-28T02:54:22;9.60;;;6.43;;
9884;SDS011;4981;50.966;4.842;2023-02-28T02:56:54;8.57;;;5.67;;
9884;SDS011;4981;50.966;4.842;2023-02-28T02:59:22;8.87;;;6.23;;
9884;SDS011;4981;50.966;4.842;2023-02-28T03:01:51;7.67;;;5.63;;
9884;SDS011;4981;50.966;4.842;2023-02-28T03:04:20;9.07;;;6.07;;
9884;SDS011;4981;50.966;4.842;2023-02-28T03:06:51;9.40;;;5.93;;
9884;SDS011;4981;50.966;4.842;2023-02-28T03:09:20;8.50;;;5.60;;
9884;SDS011;4981;50.966;4.842;2023-02-28T03:11:48;8.73;;;5.40;;
9884;SDS011;4981;50.966;4.842;2023-02-28T03:14:20;7.27;;;5.60;;
9884;SDS011;4981;50.966;4.842;2023-02-28T03:16:56;8.27;;;5.50;;
9884;SDS011;4981;50.966;4.842;2023-02-28T03:19:31;9.70;;;6.20;;
9884;SDS011;4981;50.966;4.842;2023-02-28T03:22:06;14.33;;;6.80;;
9884;SDS011;4981;50.966;4.842;2023-02-28T03:24:37;15.03;;;6.47;;
9884;SDS011;4981;50.966;4.842;2023-02-28T03:27:09;8.63;;;5.77;;
9884;SDS011;4981;50.966;4.842;2023-02-28T03:29:38;8.60;;;6.30;;
9884;SDS011;4981;50.966;4.842;2023-02-28T03:32:13;12.20;;;5.83;;
9884;SDS011;4981;50.966;4.842;2023-02-28T03:34:49;10.47;;;6.40;;
9884;SDS011;4981;50.966;4.842;2023-02-28T03:37:20;9.23;;;6.13;;
9884;SDS011;4981;50.966;4.842;2023-02-28T03:39:51;12.77;;;6.50;;
9884;SDS011;4981;50.966;4.842;2023-02-28T03:42:21;8.90;;;6.00;;
9884;SDS011;4981;50.966;4.842;2023-02-28T03:44:52;11.17;;;6.57;;
9884;SDS011;4981;50.966;4.842;2023-02-28T03:47:21;13.07;;;7.00;;
9884;SDS011;4981;50.966;4.842;2023-02-28T03:49:52;11.30;;;6.10;;
9884;SDS011;4981;50.966;4.842;2023-02-28T03:52:22;11.70;;;6.60;;
9884;SDS011;4981;50.966;4.842;2023-02-28T03:54:53;9.27;;;6.17;;
9884;SDS011;4981;50.966;4.842;2023-02-28T03:57:23;11.10;;;6.87;;
9884;SDS011;4981;50.966;4.842;2023-02-28T03:59:53;14.27;;;7.07;;
9884;SDS011;4981;50.966;4.842;2023-02-28T04:02:22;12.27;;;6.90;;
9884;SDS011;4981;50.966;4.842;2023-02-28T04:04:50;12.40;;;6.73;;
9884;SDS011;4981;50.966;4.842;2023-02-28T04:07:18;12.20;;;6.90;;
9884;SDS011;4981;50.966;4.842;2023-02-28T04:09:47;10.77;;;6.97;;
9884;SDS011;4981;50.966;4.842;2023-02-28T04:12:15;10.07;;;6.57;;
9884;SDS011;4981;50.966;4.842;2023-02-28T04:14:42;11.37;;;7.10;;
9884;SDS011;4981;50.966;4.842;2023-02-28T04:17:10;10.93;;;7.00;;
9884;SDS011;4981;50.966;4.842;2023-02-28T04:19:38;9.13;;;6.40;;
9884;SDS011;4981;50.966;4.842;2023-02-28T04:22:05;12.70;;;7.57;;
9884;SDS011;4981;50.966;4.842;2023-02-28T04:24:33;10.43;;;6.30;;
9884;SDS011;4981;50.966;4.842;2023-02-28T04:27:02;10.00;;;6.60;;
9884;SDS011;4981;50.966;4.842;2023-02-28T04:29:31;10.60;;;7.27;;
9884;SDS011;4981;50.966;4.842;2023-02-28T04:31:59;11.93;;;7.10;;
9884;SDS011;4981;50.966;4.842;2023-02-28T04:34:27;10.67;;;6.13;;
9884;SDS011;4981;50.966;4.842;2023-02-28T04:36:55;11.27;;;6.63;;
9884;SDS011;4981;50.966;4.842;2023-02-28T04:39:23;9.33;;;6.30;;
9884;SDS011;4981;50.966;4.842;2023-02-28T04:41:51;11.70;;;6.37;;
9884;SDS011;4981;50.966;4.842;2023-02-28T04:44:20;10.40;;;6.57;;
9884;SDS011;4981;50.966;4.842;2023-02-28T04:46:48;11.47;;;6.40;;
9884;SDS011;4981;50.966;4.842;2023-02-28T04:49:16;11.73;;;6.40;;
9884;SDS011;4981;50.966;4.842;2023-02-28T04:51:43;9.00;;;6.40;;
9884;SDS011;4981;50.966;4.842;2023-02-28T04:54:11;14.53;;;6.47;;
9884;SDS011;4981;50.966;4.842;2023-02-28T04:56:41;9.23;;;6.57;;
9884;SDS011;4981;50.966;4.842;2023-02-28T04:59:08;12.37;;;6.50;;
9884;SDS011;4981;50.966;4.842;2023-02-28T05:01:37;11.13;;;6.50;;
9884;SDS011;4981;50.966;4.842;2023-02-28T05:04:05;11.33;;;6.70;;
9884;SDS011;4981;50.966;4.842;2023-02-28T05:06:33;10.20;;;6.93;;
9884;SDS011;4981;50.966;4.842;2023-02-28T05:09:00;9.60;;;6.13;;
9884;SDS011;4981;50.966;4.842;2023-02-28T05:11:29;12.10;;;6.27;;
9884;SDS011;4981;50.966;4.842;2023-02-28T05:13:59;7.70;;;6.20;;
9884;SDS011;4981;50.966;4.842;2023-02-28T05:16:27;8.53;;;6.60;;
9884;SDS011;4981;50.966;4.842;2023-02-28T05:18:56;9.13;;;6.47;;
9884;SDS011;4981;50.966;4.842;2023-02-28T05:21:25;11.73;;;6.60;;
9884;SDS011;4981;50.966;4.842;2023-02-28T05:23:54;11.07;;;6.23;;
9884;SDS011;4981;50.966;4.842;2023-02-28T05:26:22;11.27;;;6.60;;
9884;SDS011;4981;50.966;4.842;2023-02-28T05:28:49;13.43;;;6.73;;
9884;SDS011;4981;50.966;4.842;2023-02-28T05:31:17;12.43;;;7.47;;
9884;SDS011;4981;50.966;4.842;2023-02-28T05:33:45;10.03;;;7.03;;
9884;SDS011;4981;50.966;4.842;2023-02-28T05:36:14;11.90;;;6.60;;
9884;SDS011;4981;50.966;4.842;2023-02-28T05:38:42;10.10;;;6.70;;
9884;SDS011;4981;50.966;4.842;2023-02-28T05:41:09;10.73;;;6.47;;
9884;SDS011;4981;50.966;4.842;2023-02-28T05:43:37;9.07;;;6.70;;
9884;SDS011;4981;50.966;4.842;2023-02-28T05:46:05;9.90;;;6.13;;
9884;SDS011;4981;50.966;4.842;2023-02-28T05:48:33;11.00;;;6.03;;
9884;SDS011;4981;50.966;4.842;2023-02-28T05:51:03;12.90;;;6.20;;
9884;SDS011;4981;50.966;4.842;2023-02-28T05:53:33;9.30;;;6.50;;
9884;SDS011;4981;50.966;4.842;2023-02-28T05:56:01;10.87;;;6.20;;
9884;SDS011;4981;50.966;4.842;2023-02-28T05:58:28;12.47;;;6.50;;
9884;SDS011;4981;50.966;4.842;2023-02-28T06:00:57;25.40;;;18.17;;
9884;SDS011;4981;50.966;4.842;2023-02-28T06:03:25;14.73;;;13.17;;
9884;SDS011;4981;50.966;4.842;2023-02-28T06:05:52;11.20;;;6.77;;
9884;SDS011;4981;50.966;4.842;2023-02-28T06:08:20;16.90;;;13.70;;
9884;SDS011;4981;50.966;4.842;2023-02-28T06:10:49;10.63;;;7.63;;
9884;SDS011;4981;50.966;4.842;2023-02-28T06:13:18;10.07;;;7.23;;
9884;SDS011;4981;50.966;4.842;2023-02-28T06:15:45;11.40;;;7.57;;
9884;SDS011;4981;50.966;4.842;2023-02-28T06:18:13;16.87;;;7.00;;
9884;SDS011;4981;50.966;4.842;2023-02-28T06:20:41;9.93;;;6.30;;
9884;SDS011;4981;50.966;4.842;2023-02-28T06:23:08;9.30;;;6.80;;
9884;SDS011;4981;50.966;4.842;2023-02-28T06:25:36;22.33;;;13.93;;
9884;SDS011;4981;50.966;4.842;2023-02-28T06:28:05;11.97;;;8.87;;
9884;SDS011;4981;50.966;4.842;2023-02-28T06:30:33;13.27;;;6.67;;
9884;SDS011;4981;50.966;4.842;2023-02-28T06:33:01;11.67;;;6.50;;
9884;SDS011;4981;50.966;4.842;2023-02-28T06:35:28;12.23;;;7.10;;
9884;SDS011;4981;50.966;4.842;2023-02-28T06:37:56;12.40;;;6.93;;
9884;SDS011;4981;50.966;4.842;2023-02-28T06:40:24;10.33;;;6.37;;
9884;SDS011;4981;50.966;4.842;2023-02-28T06:42:51;9.50;;;6.53;;
9884;SDS011;4981;50.966;4.842;2023-02-28T06:45:21;11.30;;;6.97;;
9884;SDS011;4981;50.966;4.842;2023-02-28T06:47:51;11.23;;;7.67;;
9884;SDS011;4981;50.966;4.842;2023-02-28T06:50:19;12.97;;;7.23;;
9884;SDS011;4981;50.966;4.842;2023-02-28T06:52:47;10.73;;;6.90;;
9884;SDS011;4981;50.966;4.842;2023-02-28T06:55:19;12.07;;;6.70;;
9884;SDS011;4981;50.966;4.842;2023-02-28T06:57:46;9.67;;;6.53;;
9884;SDS011;4981;50.966;4.842;2023-02-28T07:00:15;9.00;;;6.37;;
9884;SDS011;4981;50.966;4.842;2023-02-28T07:02:45;10.90;;;6.57;;
9884;SDS011;4981;50.966;4.842;2023-02-28T07:05:13;11.33;;;6.57;;
9884;SDS011;4981;50.966;4.842;2023-02-28T07:07:41;10.47;;;7.57;;
9884;SDS011;4981;50.966;4.842;2023-02-28T07:10:11;9.30;;;6.40;;
9884;SDS011;4981;50.966;4.842;2023-02-28T07:12:42;10.20;;;7.00;;
9884;SDS011;4981;50.966;4.842;2023-02-28T07:15:10;12.57;;;7.37;;
9884;SDS011;4981;50.966;4.842;2023-02-28T07:17:38;9.70;;;7.10;;
9884;SDS011;4981;50.966;4.842;2023-02-28T07:20:08;10.80;;;7.77;;
9884;SDS011;4981;50.966;4.842;2023-02-28T07:22:36;10.60;;;7.37;;
9884;SDS011;4981;50.966;4.842;2023-02-28T07:25:04;8.93;;;6.40;;
9884;SDS011;4981;50.966;4.842;2023-02-28T07:27:32;11.33;;;6.77;;
9884;SDS011;4981;50.966;4.842;2023-02-28T07:30:00;13.57;;;6.73;;
9884;SDS011;4981;50.966;4.842;2023-02-28T07:32:28;11.47;;;7.03;;
9884;SDS011;4981;50.966;4.842;2023-02-28T07:34:56;12.17;;;6.77;;
9884;SDS011;4981;50.966;4.842;2023-02-28T07:37:25;9.57;;;6.37;;
9884;SDS011;4981;50.966;4.842;2023-02-28T07:39:56;10.37;;;6.40;;
9884;SDS011;4981;50.966;4.842;2023-02-28T07:42:24;9.67;;;6.30;;
9884;SDS011;4981;50.966;4.842;2023-02-28T07:44:51;8.77;;;5.73;;
9884;SDS011;4981;50.966;4.842;2023-02-28T07:47:19;8.40;;;5.87;;
9884;SDS011;4981;50.966;4.842;2023-02-28T07:49:47;7.63;;;5.70;;
9884;SDS011;4981;50.966;4.842;2023-02-28T07:52:14;12.07;;;5.90;;
9884;SDS011;4981;50.966;4.842;2023-02-28T07:54:44;11.10;;;6.47;;
9884;SDS011;4981;50.966;4.842;2023-02-28T07:57:11;8.97;;;5.67;;
9884;SDS011;4981;50.966;4.842;2023-02-28T07:59:39;12.53;;;6.20;;
9884;SDS011;4981;50.966;4.842;2023-02-28T08:02:08;8.73;;;4.50;;
9884;SDS011;4981;50.966;4.842;2023-02-28T08:04:37;8.93;;;4.73;;
9884;SDS011;4981;50.966;4.842;2023-02-28T08:07:04;8.07;;;4.43;;
9884;SDS011;4981;50.966;4.842;2023-02-28T08:09:32;7.33;;;4.47;;
9884;SDS011;4981;50.966;4.842;2023-02-28T08:12:02;5.53;;;3.57;;
9884;SDS011;4981;50.966;4.842;2023-02-28T08:14:30;7.37;;;4.20;;
9884;SDS011;4981;50.966;4.842;2023-02-28T08:16:57;7.77;;;4.43;;
9884;SDS011;4981;50.966;4.842;2023-02-28T08:19:25;6.97;;;3.53;;
9884;SDS011;4981;50.966;4.842;2023-02-28T08:21:53;7.33;;;4.17;;
9884;SDS011;4981;50.966;4.842;2023-02-28T08:24:21;8.03;;;4.23;;
9884;SDS011;4981;50.966;4.842;2023-02-28T08:26:48;7.60;;;3.80;;
9884;SDS011;4981;50.966;4.842;2023-02-28T08:29:17;5.13;;;3.70;;
9884;SDS011;4981;50.966;4.842;2023-02-28T08:31:45;9.30;;;3.77;;
9884;SDS011;4981;50.966;4.842;2023-02-28T08:34:13;8.70;;;4.23;;
9884;SDS011;4981;50.966;4.842;2023-02-28T08:36:41;5.20;;;3.57;;
9884;SDS011;4981;50.966;4.842;2023-02-28T08:39:09;6.97;;;3.47;;
9884;SDS011;4981;50.966;4.842;2023-02-28T08:41:37;6.67;;;3.90;;
9884;SDS011;4981;50.966;4.842;2023-02-28T08:44:05;5.73;;;3.93;;
9884;SDS011;4981;50.966;4.842;2023-02-28T08:46:34;5.17;;;3.20;;
9884;SDS011;4981;50.966;4.842;2023-02-28T08:49:01;3.53;;;2.50;;
9884;SDS011;4981;50.966;4.842;2023-02-28T08:51:29;7.33;;;3.57;;
9884;SDS011;4981;50.966;4.842;2023-02-28T08:53:58;6.33;;;3.10;;
9884;SDS011;4981;50.966;4.842;2023-02-28T08:56:26;7.50;;;3.70;;
9884;SDS011;4981;50.966;4.842;2023-02-28T08:58:54;6.30;;;3.70;;
9884;SDS011;4981;50.966;4.842;2023-02-28T09:01:22;5.30;;;3.10;;
9884;SDS011;4981;50.966;4.842;2023-02-28T09:03:54;4.37;;;2.97;;
9884;SDS011;4981;50.966;4.842;2023-02-28T09:06:22;3.50;;;2.70;;
9884;SDS011;4981;50.966;4.842;2023-02-28T09:08:50;5.37;;;2.53;;
9884;SDS011;4981;50.966;4.842;2023-02-28T09:11:19;3.10;;;2.67;;
9884;SDS011;4981;50.966;4.842;2023-02-28T09:13:47;4.30;;;2.70;;
9884;SDS011;4981;50.966;4.842;2023-02-28T09:16:15;4.90;;;2.50;;
9884;SDS011;4981;50.966;4.842;2023-02-28T09:18:43;5.80;;;2.70;;
9884;SDS011;4981;50.966;4.842;2023-02-28T09:21:14;3.10;;;2.30;;
9884;SDS011;4981;50.966;4.842;2023-02-28T09:23:42;7.17;;;2.73;;
9884;SDS011;4981;50.966;4.842;2023-02-28T09:26:13;4.90;;;2.77;;
9884;SDS011;4981;50.966;4.842;2023-02-28T09:28:41;3.33;;;2.47;;
9884;SDS011;4981;50.966;4.842;2023-02-28T09:31:11;5.10;;;2.60;;
9884;SDS011;4981;50.966;4.842;2023-02-28T09:33:39;3.63;;;2.43;;
9884;SDS011;4981;50.966;4.842;2023-02-28T09:36:07;4.53;;;2.53;;
9884;SDS011;4981;50.966;4.842;2023-02-28T09:38:36;2.30;;;2.10;;
9884;SDS011;4981;50.966;4.842;2023-02-28T09:41:04;3.57;;;2.63;;
9884;SDS011;4981;50.966;4.842;2023-02-28T09:43:38;4.33;;;2.10;;
9884;SDS011;4981;50.966;4.842;2023-02-28T09:46:08;1.97;;;1.63;;
9884;SDS011;4981;50.966;4.842;2023-02-28T09:48:40;2.80;;;1.60;;
9884;SDS011;4981;50.966;4.842;2023-02-28T09:51:11;2.73;;;1.93;;
9884;SDS011;4981;50.966;4.842;2023-02-28T09:53:41;1.67;;;1.37;;
9884;SDS011;4981;50.966;4.842;2023-02-28T09:56:10;2.07;;;1.40;;
9884;SDS011;4981;50.966;4.842;2023-02-28T09:58:39;2.00;;;1.80;;
9884;SDS011;4981;50.966;4.842;2023-02-28T10:01:09;2.23;;;1.90;;
9884;SDS011;4981;50.966;4.842;2023-02-28T10:03:39;5.07;;;2.27;;
9884;SDS011;4981;50.966;4.842;2023-02-28T10:06:11;1.83;;;1.63;;
9884;SDS011;4981;50.966;4.842;2023-02-28T10:08:43;2.50;;;1.70;;
9884;SDS011;4981;50.966;4.842;2023-02-28T10:11:14;2.07;;;1.50;;
9884;SDS011;4981;50.966;4.842;2023-02-28T10:13:46;1.40;;;1.30;;
9884;SDS011;4981;50.966;4.842;2023-02-28T10:16:20;2.07;;;1.70;;
9884;SDS011;4981;50.966;4.842;2023-02-28T10:18:50;2.20;;;1.30;;
9884;SDS011;4981;50.966;4.842;2023-02-28T10:21:20;1.53;;;1.30;;
9884;SDS011;4981;50.966;4.842;2023-02-28T10:23:50;2.77;;;1.60;;
9884;SDS011;4981;50.966;4.842;2023-02-28T10:26:20;4.47;;;1.57;;
9884;SDS011;4981;50.966;4.842;2023-02-28T10:28:49;2.13;;;1.40;;
9884;SDS011;4981;50.966;4.842;2023-02-28T10:31:18;1.93;;;1.53;;
9884;SDS011;4981;50.966;4.842;2023-02-28T10:33:46;2.53;;;1.80;;
9884;SDS011;4981;50.966;4.842;2023-02-28T10:36:15;2.23;;;1.50;;
9884;SDS011;4981;50.966;4.842;2023-02-28T10:38:43;2.70;;;1.63;;
9884;SDS011;4981;50.966;4.842;2023-02-28T10:41:13;1.53;;;1.30;;
9884;SDS011;4981;50.966;4.842;2023-02-28T10:43:42;2.20;;;1.77;;
9884;SDS011;4981;50.966;4.842;2023-02-28T10:46:12;2.73;;;1.43;;
9884;SDS011;4981;50.966;4.842;2023-02-28T10:48:57;1.90;;;1.50;;
9884;SDS011;4981;50.966;4.842;2023-02-28T10:51:26;3.33;;;1.67;;
9884;SDS011;4981;50.966;4.842;2023-02-28T10:54:01;4.43;;;1.83;;
9884;SDS011;4981;50.966;4.842;2023-02-28T10:56:31;2.97;;;1.30;;
9884;SDS011;4981;50.966;4.842;2023-02-28T10:59:00;1.70;;;1.43;;
9884;SDS011;4981;50.966;4.842;2023-02-28T11:01:38;2.73;;;1.47;;
9884;SDS011;4981;50.966;4.842;2023-02-28T11:04:16;1.70;;;1.40;;
9884;SDS011;4981;50.966;4.842;2023-02-28T11:06:46;1.67;;;1.17;;
9884;SDS011;4981;50.966;4.842;2023-02-28T11:09:18;2.63;;;1.80;;
9884;SDS011;4981;50.966;4.842;2023-02-28T11:11:48;3.00;;;1.63;;
9884;SDS011;4981;50.966;4.842;2023-02-28T11:14:18;2.90;;;1.70;;
9884;SDS011;4981;50.966;4.842;2023-02-28T11:16:46;4.67;;;1.80;;
9884;SDS011;4981;50.966;4.842;2023-02-28T11:19:17;1.80;;;1.53;;
9884;SDS011;4981;50.966;4.842;2023-02-28T11:21:48;3.07;;;1.67;;
9884;SDS011;4981;50.966;4.842;2023-02-28T11:24:20;2.17;;;1.50;;
9884;SDS011;4981;50.966;4.842;2023-02-28T11:26:50;2.23;;;1.40;;
9884;SDS011;4981;50.966;4.842;2023-02-28T11:29:19;2.00;;;1.60;;
9884;SDS011;4981;50.966;4.842;2023-02-28T11:32:01;2.73;;;1.83;;
9884;SDS011;4981;50.966;4.842;2023-02-28T11:34:28;1.70;;;1.10;;
9884;SDS011;4981;50.966;4.842;2023-02-28T11:36:57;1.67;;;1.53;;
9884;SDS011;4981;50.966;4.842;2023-02-28T11:39:25;2.30;;;1.30;;
9884;SDS011;4981;50.966;4.842;2023-02-28T11:42:01;1.90;;;1.40;;
9884;SDS011;4981;50.966;4.842;2023-02-28T11:47:26;1.60;;;0.90;;
9884;SDS011;4981;50.966;4.842;2023-02-28T11:50:00;1.97;;;1.10;;
9884;SDS011;4981;50.966;4.842;2023-02-28T11:52:34;1.33;;;1.03;;
9884;SDS011;4981;50.966;4.842;2023-02-28T11:55:09;1.77;;;1.53;;
9884;SDS011;4981;50.966;4.842;2023-02-28T11:57:48;1.73;;;1.27;;
9884;SDS011;4981;50.966;4.842;2023-02-28T12:00:19;1.10;;;1.00;;
9884;SDS011;4981;50.966;4.842;2023-02-28T12:02:58;1.83;;;0.90;;
9884;SDS011;4981;50.966;4.842;2023-02-28T12:05:29;1.50;;;1.30;;
9884;SDS011;4981;50.966;4.842;2023-02-28T12:08:01;0.80;;;0.80;;
9884;SDS011;4981;50.966;4.842;2023-02-28T12:10:32;1.70;;;1.60;;
9884;SDS011;4981;50.966;4.842;2023-02-28T12:13:07;1.20;;;1.10;;
9884;SDS011;4981;50.966;4.842;2023-02-28T12:15:42;1.10;;;0.90;;
9884;SDS011;4981;50.966;4.842;2023-02-28T12:18:18;1.10;;;0.73;;
9884;SDS011;4981;50.966;4.842;2023-02-28T12:20:49;5.17;;;1.30;;
9884;SDS011;4981;50.966;4.842;2023-02-28T12:23:23;1.00;;;0.90;;
9884;SDS011;4981;50.966;4.842;2023-02-28T12:25:59;1.37;;;1.00;;
9884;SDS011;4981;50.966;4.842;2023-02-28T12:28:31;2.30;;;1.57;;
9884;SDS011;4981;50.966;4.842;2023-02-28T12:31:04;1.73;;;1.30;;
9884;SDS011;4981;50.966;4.842;2023-02-28T12:33:34;3.17;;;1.70;;
9884;SDS011;4981;50.966;4.842;2023-02-28T12:36:04;1.67;;;1.37;;
9884;SDS011;4981;50.966;4.842;2023-02-28T12:38:36;1.37;;;1.07;;
9884;SDS011;4981;50.966;4.842;2023-02-28T12:41:05;1.37;;;1.00;;
9884;SDS011;4981;50.966;4.842;2023-02-28T12:43:40;1.57;;;1.47;;
9884;SDS011;4981;50.966;4.842;2023-02-28T12:46:09;0.83;;;0.83;;
9884;SDS011;4981;50.966;4.842;2023-02-28T12:48:39;1.37;;;1.20;;
9884;SDS011;4981;50.966;4.842;2023-02-28T12:51:07;1.60;;;1.50;;
9884;SDS011;4981;50.966;4.842;2023-02-28T12:53:40;1.90;;;1.27;;
9884;SDS011;4981;50.966;4.842;2023-02-28T12:56:12;1.63;;;1.23;;
9884;SDS011;4981;50.966;4.842;2023-02-28T12:58:43;2.10;;;1.40;;
9884;SDS011;4981;50.966;4.842;2023-02-28T13:01:30;1.50;;;1.33;;
9884;SDS011;4981;50.966;4.842;2023-02-28T13:04:08;2.90;;;1.83;;
9884;SDS011;4981;50.966;4.842;2023-02-28T13:06:45;2.90;;;1.30;;
9884;SDS011;4981;50.966;4.842;2023-02-28T13:09:16;2.97;;;1.87;;
9884;SDS011;4981;50.966;4.842;2023-02-28T13:11:45;3.10;;;2.30;;
9884;SDS011;4981;50.966;4.842;2023-02-28T13:14:20;1.97;;;1.60;;
9884;SDS011;4981;50.966;4.842;2023-02-28T13:16:50;1.00;;;0.90;;
9884;SDS011;4981;50.966;4.842;2023-02-28T13:19:19;2.83;;;1.70;;
9884;SDS011;4981;50.966;4.842;2023-02-28T13:21:48;2.63;;;1.13;;
9884;SDS011;4981;50.966;4.842;2023-02-28T13:30:01;1.17;;;1.00;;
9884;SDS011;4981;50.966;4.842;2023-02-28T13:32:34;3.30;;;1.67;;
9884;SDS011;4981;50.966;4.842;2023-02-28T13:35:15;4.33;;;2.47;;
9884;SDS011;4981;50.966;4.842;2023-02-28T13:38:32;2.50;;;2.30;;
9884;SDS011;4981;50.966;4.842;2023-02-28T13:44:00;2.77;;;2.53;;
9884;SDS011;4981;50.966;4.842;2023-02-28T13:46:30;4.00;;;2.83;;
9884;SDS011;4981;50.966;4.842;2023-02-28T13:51:41;3.47;;;2.30;;
9884;SDS011;4981;50.966;4.842;2023-02-28T13:54:15;9.43;;;3.33;;
9884;SDS011;4981;50.966;4.842;2023-02-28T13:56:45;1.50;;;1.40;;
9884;SDS011;4981;50.966;4.842;2023-02-28T13:59:20;2.77;;;2.57;;
9884;SDS011;4981;50.966;4.842;2023-02-28T14:01:55;2.77;;;2.53;;
9884;SDS011;4981;50.966;4.842;2023-02-28T14:04:37;2.27;;;2.00;;
9884;SDS011;4981;50.966;4.842;2023-02-28T14:07:08;3.10;;;2.60;;
9884;SDS011;4981;50.966;4.842;2023-02-28T14:09:45;2.27;;;2.03;;
9884;SDS011;4981;50.966;4.842;2023-02-28T14:15:00;1.00;;;0.90;;
9884;SDS011;4981;50.966;4.842;2023-02-28T14:17:29;2.30;;;2.10;;
9884;SDS011;4981;50.966;4.842;2023-02-28T14:19:56;3.17;;;2.80;;
9884;SDS011;4981;50.966;4.842;2023-02-28T14:22:34;3.83;;;2.77;;
9884;SDS011;4981;50.966;4.842;2023-02-28T14:25:08;3.57;;;3.03;;
9884;SDS011;4981;50.966;4.842;2023-02-28T14:27:40;3.13;;;2.70;;
9884;SDS011;4981;50.966;4.842;2023-02-28T14:30:26;6.50;;;2.90;;
9884;SDS011;4981;50.966;4.842;2023-02-28T14:33:01;3.40;;;3.10;;
9884;SDS011;4981;50.966;4.842;2023-02-28T14:35:43;2.53;;;2.23;;
9884;SDS011;4981;50.966;4.842;2023-02-28T14:38:14;2.13;;;0.83;;
9884;SDS011;4981;50.966;4.842;2023-02-28T14:40:43;2.30;;;2.07;;
9884;SDS011;4981;50.966;4.842;2023-02-28T14:43:19;2.87;;;2.23;;
9884;SDS011;4981;50.966;4.842;2023-02-28T14:45:49;2.93;;;2.73;;
9884;SDS011;4981;50.966;4.842;2023-02-28T14:48:18;1.93;;;1.23;;
9884;SDS011;4981;50.966;4.842;2023-02-28T14:50:51;2.07;;;1.57;;
9884;SDS011;4981;50.966;4.842;2023-02-28T14:53:19;1.80;;;1.70;;
9884;SDS011;4981;50.966;4.842;2023-02-28T14:55:48;2.73;;;1.77;;
9884;SDS011;4981;50.966;4.842;2023-02-28T14:58:22;4.53;;;2.17;;
9884;SDS011;4981;50.966;4.842;2023-02-28T15:00:50;1.90;;;1.70;;
9884;SDS011;4981;50.966;4.842;2023-02-28T15:03:21;3.63;;;2.10;;
9884;SDS011;4981;50.966;4.842;2023-02-28T15:05:52;3.40;;;3.10;;
9884;SDS011;4981;50.966;4.842;2023-02-28T15:08:20;2.70;;;2.27;;
9884;SDS011;4981;50.966;4.842;2023-02-28T15:10:50;2.20;;;1.77;;
9884;SDS011;4981;50.966;4.842;2023-02-28T15:13:18;2.50;;;2.30;;
9884;SDS011;4981;50.966;4.842;2023-02-28T15:15:47;2.00;;;1.07;;
9884;SDS011;4981;50.966;4.842;2023-02-28T15:18:22;4.53;;;2.43;;
9884;SDS011;4981;50.966;4.842;2023-02-28T15:20:50;2.60;;;1.60;;
9884;SDS011;4981;50.966;4.842;2023-02-28T15:23:18;2.40;;;2.20;;
9884;SDS011;4981;50.966;4.842;2023-02-28T15:25:47;2.33;;;1.53;;
9884;SDS011;4981;50.966;4.842;2023-02-28T15:28:16;1.93;;;1.53;;
9884;SDS011;4981;50.966;4.842;2023-02-28T15:30:52;2.40;;;2.20;;
9884;SDS011;4981;50.966;4.842;2023-02-28T15:33:20;1.70;;;1.60;;
9884;SDS011;4981;50.966;4.842;2023-02-28T15:35:49;6.47;;;4.43;;
9884;SDS011;4981;50.966;4.842;2023-02-28T15:38:18;4.37;;;3.23;;
9884;SDS011;4981;50.966;4.842;2023-02-28T15:40:50;3.70;;;3.40;;
9884;SDS011;4981;50.966;4.842;2023-02-28T15:43:23;4.10;;;2.70;;
9884;SDS011;4981;50.966;4.842;2023-02-28T15:45:51;6.47;;;4.20;;
9884;SDS011;4981;50.966;4.842;2023-02-28T15:48:20;2.47;;;1.67;;
9884;SDS011;4981;50.966;4.842;2023-02-28T15:50:51;2.60;;;2.30;;
9884;SDS011;4981;50.966;4.842;2023-02-28T15:53:21;5.20;;;2.67;;
9884;SDS011;4981;50.966;4.842;2023-02-28T15:55:58;2.40;;;1.93;;